Time;durP1;ratioP1;P1;durP2;ratioP2;P2;SDS_P1;SDS_P2;PMS_P1;PMS_P2;Temp;Humidity;BMP_temperature;BMP_pressure;BME280_temperature;BME280_humidity;BME280_pressure;Samples;Min_cycle;Max_cycle;Signal;HPM_P1;HPM_P2
2022/05/21 00:00:06;;;;;;;13.85;5.22;;;18.20;99.90;;;;;;5011155;28;20057;-61
2022/05/21 00:02:33;;;;;;;10.55;4.60;;;18.20;99.90;;;;;;5007394;28;20045;-61
2022/05/21 00:05:01;;;;;;;9.07;4.93;;;18.10;99.90;;;;;;5012044;28;20414;-61
2022/05/21 00:07:29;;;;;;;9.77;4.65;;;18.00;99.90;;;;;;5011685;28;20050;-61
2022/05/21 00:09:56;;;;;;;12.13;4.68;;;18.00;99.90;;;;;;5006400;28;20034;-61
2022/05/21 00:12:22;;;;;;;11.52;4.68;;;18.00;99.90;;;;;;5011317;28;20041;-61
2022/05/21 00:14:52;;;;;;;8.70;4.97;;;18.00;99.90;;;;;;5011714;28;20100;-61
2022/05/21 00:17:19;;;;;;;10.63;4.78;;;17.90;99.90;;;;;;5010844;28;20046;-62
2022/05/21 00:19:46;;;;;;;13.82;5.50;;;17.90;99.90;;;;;;5010061;28;20056;-62
2022/05/21 00:22:13;;;;;;;8.68;4.80;;;17.80;99.90;;;;;;5011382;28;20133;-61
2022/05/21 00:24:40;;;;;;;14.30;5.85;;;17.80;99.90;;;;;;5011477;28;20054;-62
2022/05/21 00:27:07;;;;;;;10.80;5.28;;;17.80;99.90;;;;;;5008384;28;20089;-62
2022/05/21 00:29:34;;;;;;;12.73;5.05;;;17.80;99.90;;;;;;5011532;28;20417;-62
2022/05/21 00:32:02;;;;;;;13.07;4.63;;;17.80;99.90;;;;;;5011044;28;20048;-62
2022/05/21 00:34:30;;;;;;;11.93;5.57;;;17.80;99.90;;;;;;5007119;28;20121;-62
2022/05/21 00:36:57;;;;;;;8.52;4.70;;;17.80;99.90;;;;;;5005348;28;20409;-62
2022/05/21 00:39:24;;;;;;;10.55;5.28;;;17.70;99.90;;;;;;5011259;28;20050;-62
2022/05/21 00:41:50;;;;;;;15.85;5.50;;;17.70;99.90;;;;;;5006801;28;20061;-62
2022/05/21 00:44:17;;;;;;;18.67;5.78;;;17.70;99.90;;;;;;5006369;28;20042;-62
2022/05/21 00:46:46;;;;;;;21.88;7.18;;;17.60;99.90;;;;;;5011148;28;20042;-63
2022/05/21 00:49:22;;;;;;;16.02;6.63;;;17.50;99.90;;;;;;5011385;28;20061;-62
2022/05/21 00:51:55;;;;;;;15.07;6.78;;;17.30;99.90;;;;;;5005173;28;20038;-61
2022/05/21 00:54:27;;;;;;;16.33;7.75;;;17.30;99.90;;;;;;5011455;28;20049;-62
2022/05/21 00:56:58;;;;;;;24.30;9.18;;;17.30;99.90;;;;;;5010816;28;20505;-61
2022/05/21 01:02:20;;;;;;;11.48;6.60;;;17.30;99.90;;;;;;5004886;28;20465;-62
2022/05/21 01:04:49;;;;;;;15.20;7.35;;;17.30;99.90;;;;;;5014430;28;20107;-61
2022/05/21 01:07:16;;;;;;;17.40;8.10;;;17.30;99.90;;;;;;5015058;28;20046;-62
2022/05/21 01:09:54;;;;;;;11.45;6.75;;;17.30;99.90;;;;;;5009381;28;20104;-62
2022/05/21 01:12:28;;;;;;;13.93;6.68;;;17.20;99.90;;;;;;5014810;28;20518;-61
2022/05/21 01:14:58;;;;;;;15.75;6.93;;;17.20;99.90;;;;;;5014846;28;20046;-61
2022/05/21 01:17:25;;;;;;;17.25;6.78;;;17.30;99.90;;;;;;5012347;28;20103;-62
2022/05/21 01:20:00;;;;;;;11.23;6.13;;;17.30;99.90;;;;;;5013443;28;20762;-62
2022/05/21 01:22:29;;;;;;;11.43;6.55;;;17.30;99.90;;;;;;5014811;28;20121;-61
2022/05/21 01:24:56;;;;;;;19.80;6.10;;;17.30;99.90;;;;;;5014595;28;20042;-61
2022/05/21 01:27:26;;;;;;;12.90;7.75;;;17.20;99.90;;;;;;5011296;28;20034;-61
2022/05/21 01:29:54;;;;;;;14.98;7.00;;;17.20;99.90;;;;;;5014143;28;20045;-62
2022/05/21 01:32:20;;;;;;;14.95;7.00;;;17.10;99.90;;;;;;5014556;28;20461;-62
2022/05/21 01:34:47;;;;;;;16.38;7.45;;;17.10;99.90;;;;;;5014552;28;20101;-62
2022/05/21 01:37:14;;;;;;;14.88;7.18;;;17.10;99.90;;;;;;5012090;28;20449;-62
2022/05/21 01:39:41;;;;;;;13.35;6.78;;;17.00;99.90;;;;;;5014073;28;20564;-62
2022/05/21 01:42:08;;;;;;;14.00;7.53;;;17.00;99.90;;;;;;5014306;28;20092;-62
2022/05/21 01:44:38;;;;;;;13.52;7.13;;;16.90;99.90;;;;;;5006350;28;20046;-62
2022/05/21 01:47:07;;;;;;;17.20;7.68;;;17.00;99.90;;;;;;5013860;28;20053;-61
2022/05/21 01:49:35;;;;;;;13.60;7.53;;;17.00;99.90;;;;;;5014450;28;20046;-61
2022/05/21 01:52:03;;;;;;;13.38;6.68;;;17.00;99.90;;;;;;5012631;28;20046;-62
2022/05/21 01:54:31;;;;;;;11.98;7.00;;;17.10;99.90;;;;;;5006152;28;20046;-62
2022/05/21 01:56:58;;;;;;;15.65;7.47;;;17.10;99.90;;;;;;5013835;28;20057;-62
2022/05/21 01:59:25;;;;;;;;;;;17.10;99.90;;;;;;5014578;28;20117;-61
2022/05/21 02:01:52;;;;;;;13.90;6.68;;;17.20;99.90;;;;;;5013823;28;19975;-62
2022/05/21 02:04:19;;;;;;;;;;;17.20;99.90;;;;;;5006033;28;20050;-62
2022/05/21 02:06:47;;;;;;;14.23;6.68;;;17.20;99.90;;;;;;5013791;28;19925;-62
2022/05/21 02:09:14;;;;;;;13.88;7.03;;;17.20;99.90;;;;;;5014145;28;20378;-62
2022/05/21 02:11:41;;;;;;;;;;;17.20;99.90;;;;;;5014319;28;20077;-61
2022/05/21 02:14:09;;;;;;;12.60;5.85;;;17.20;99.90;;;;;;5008802;28;19930;-62
2022/05/21 02:16:36;;;;;;;12.80;6.70;;;17.10;99.90;;;;;;5013238;28;20053;-62
2022/05/21 02:19:05;;;;;;;12.57;7.07;;;17.20;99.90;;;;;;5013988;28;20081;-62
2022/05/21 02:21:35;;;;;;;16.65;7.40;;;17.20;99.90;;;;;;5027207;28;20045;-62
2022/05/21 02:24:02;;;;;;;12.38;6.75;;;17.20;99.90;;;;;;5013851;28;20096;-62
2022/05/21 02:26:32;;;;;;;;;;;17.10;99.90;;;;;;5014214;28;20085;-62
2022/05/21 02:28:59;;;;;;;19.27;7.57;;;17.10;99.90;;;;;;5010707;28;19929;-62
2022/05/21 02:31:26;;;;;;;17.75;8.93;;;17.10;99.90;;;;;;5009061;28;20045;-62
2022/05/21 02:33:53;;;;;;;16.50;8.25;;;17.10;99.90;;;;;;5013313;28;20045;-62
2022/05/21 02:39:25;;;;;;;17.95;9.10;;;17.00;99.90;;;;;;5013729;28;20052;-61
2022/05/21 02:39:25;;;;;;;22.58;9.10;;;17.00;99.90;;;;;;5006899;28;20442;-61
2022/05/21 02:41:52;;;;;;;71.93;11.65;;;17.00;99.90;;;;;;5013056;28;20060;-62
2022/05/21 02:44:19;;;;;;;176.65;16.92;;;16.90;99.90;;;;;;5013556;28;20070;-61
2022/05/21 02:46:47;;;;;;;30.95;9.85;;;16.90;99.90;;;;;;5008793;28;20027;-59
2022/05/21 02:49:45;;;;;;;75.72;13.75;;;16.90;99.90;;;;;;5008765;23;20503;-71
2022/05/21 02:52:11;;;;;;;24.63;10.40;;;16.90;99.90;;;;;;4974984;28;20046;-71
2022/05/21 02:54:38;;;;;;;19.02;10.50;;;16.80;99.90;;;;;;4993890;28;20050;-70
2022/05/21 02:57:09;;;;;;;25.67;10.57;;;16.90;99.90;;;;;;4992416;28;20050;-70
2022/05/21 02:59:37;;;;;;;18.63;10.25;;;16.90;99.90;;;;;;4993401;28;20053;-71
2022/05/21 03:02:04;;;;;;;27.63;11.05;;;16.90;99.90;;;;;;4992473;28;20050;-72
2022/05/21 03:04:32;;;;;;;21.08;10.60;;;16.90;99.90;;;;;;4992379;28;20050;-72
2022/05/21 03:07:00;;;;;;;20.95;10.75;;;16.90;99.90;;;;;;4992331;28;20434;-72
2022/05/21 03:12:13;;;;;;;22.75;12.73;;;16.80;99.90;;;;;;4992838;28;20100;-72
2022/05/21 03:14:41;;;;;;;13.63;8.68;;;16.80;99.90;;;;;;4993475;28;20113;-72
2022/05/21 03:17:07;;;;;;;22.60;9.73;;;16.70;99.90;;;;;;4992021;28;20054;-72
2022/05/21 03:19:35;;;;;;;23.50;9.88;;;16.70;99.90;;;;;;4991825;28;20126;-72
2022/05/21 03:22:01;;;;;;;20.27;9.98;;;16.70;99.90;;;;;;4992763;28;20046;-71
2022/05/21 03:24:28;;;;;;;32.33;10.82;;;16.70;99.90;;;;;;4992434;28;20089;-72
2022/05/21 03:26:55;;;;;;;24.88;9.65;;;16.60;99.90;;;;;;4991771;28;20400;-71
2022/05/21 03:29:22;;;;;;;30.20;10.95;;;16.50;99.90;;;;;;4993026;28;20039;-70
2022/05/21 03:31:49;;;;;;;;;;;16.40;99.90;;;;;;4991800;28;20042;-70
2022/05/21 03:34:16;;;;;;;37.25;10.93;;;16.30;99.90;;;;;;4992658;28;19976;-70
2022/05/21 03:36:44;;;;;;;23.98;11.95;;;16.20;99.90;;;;;;4992865;28;20050;-70
2022/05/21 03:39:11;;;;;;;24.42;11.75;;;16.10;99.90;;;;;;4992663;28;20328;-70
2022/05/21 03:41:37;;;;;;;25.90;12.23;;;16.00;99.90;;;;;;4991240;28;20114;-70
2022/05/21 03:44:05;;;;;;;26.25;11.38;;;16.00;99.90;;;;;;4992829;28;20042;-70
2022/05/21 03:46:32;;;;;;;15.30;10.82;;;16.00;99.90;;;;;;4992658;28;20038;-71
2022/05/21 03:48:59;;;;;;;16.55;10.98;;;16.10;99.90;;;;;;4988513;28;20679;-71
2022/05/21 03:51:26;;;;;;;23.42;10.57;;;16.00;99.90;;;;;;4987974;28;20038;-71
2022/05/21 03:53:52;;;;;;;20.20;11.18;;;16.00;99.90;;;;;;4992600;28;20046;-71
2022/05/21 03:56:19;;;;;;;15.77;9.80;;;16.10;99.90;;;;;;4991810;28;20069;-71
2022/05/21 03:58:46;;;;;;;18.45;10.30;;;16.10;99.90;;;;;;4992127;28;20053;-70
2022/05/21 04:01:13;;;;;;;19.75;10.40;;;16.00;99.90;;;;;;4992098;28;20054;-70
2022/05/21 04:03:40;;;;;;;20.70;10.00;;;16.00;99.90;;;;;;4992340;28;20403;-71
2022/05/21 04:06:07;;;;;;;17.95;9.70;;;16.00;99.90;;;;;;4991187;28;20446;-71
2022/05/21 04:08:34;;;;;;;14.32;9.13;;;16.00;99.90;;;;;;4992094;28;20121;-70
2022/05/21 04:11:02;;;;;;;14.77;9.38;;;16.00;99.90;;;;;;4992203;28;20034;-70
2022/05/21 04:13:29;;;;;;;15.90;9.43;;;16.00;99.90;;;;;;4992345;28;20046;-70
2022/05/21 04:15:56;;;;;;;22.08;10.20;;;16.00;99.90;;;;;;4990915;28;20050;-71
2022/05/21 04:18:22;;;;;;;13.70;8.55;;;16.00;99.90;;;;;;4992133;28;20042;-71
2022/05/21 04:20:49;;;;;;;14.75;8.75;;;16.00;99.90;;;;;;4991774;28;20046;-71
2022/05/21 04:23:16;;;;;;;16.30;7.93;;;16.10;99.90;;;;;;4992195;28;20046;-70
2022/05/21 04:25:43;;;;;;;11.32;7.90;;;16.10;99.90;;;;;;4990403;28;20655;-70
2022/05/21 04:28:15;;;;;;;15.18;8.35;;;16.10;99.90;;;;;;4991976;28;20070;-70
2022/05/21 04:30:42;;;;;;;13.88;9.32;;;16.10;99.90;;;;;;4991800;28;20491;-70
2022/05/21 04:33:08;;;;;;;19.02;8.77;;;16.10;99.90;;;;;;4990704;28;20534;-71
2022/05/21 04:38:21;;;;;;;25.13;9.70;;;16.10;99.90;;;;;;4993024;28;20092;-71
2022/05/21 04:40:47;;;;;;;16.88;9.05;;;16.10;99.90;;;;;;4994652;28;20071;-71
2022/05/21 04:43:14;;;;;;;54.83;11.77;;;16.10;99.90;;;;;;4996020;28;20462;-71
2022/05/21 04:45:41;;;;;;;18.88;10.93;;;16.10;99.90;;;;;;4994711;28;20466;-71
2022/05/21 04:48:09;;;;;;;15.30;9.30;;;16.10;99.90;;;;;;4995589;28;20771;-71
2022/05/21 04:50:38;;;;;;;16.40;9.35;;;16.10;99.90;;;;;;4994455;28;20042;-70
2022/05/21 04:53:06;;;;;;;16.33;8.73;;;16.20;99.90;;;;;;4995883;28;20042;-70
2022/05/21 04:55:32;;;;;;;19.90;9.40;;;16.10;99.90;;;;;;4995990;28;20402;-70
2022/05/21 04:57:59;;;;;;;16.55;8.77;;;16.20;99.90;;;;;;4994554;28;20042;-69
2022/05/21 05:00:27;;;;;;;17.10;8.43;;;16.10;99.90;;;;;;4995069;28;20062;-70
2022/05/21 05:02:54;;;;;;;20.83;9.00;;;16.10;99.90;;;;;;4995796;28;20116;-70
2022/05/21 05:05:21;;;;;;;17.48;8.27;;;16.00;99.90;;;;;;4995759;28;20046;-71
2022/05/21 05:07:47;;;;;;;17.95;9.45;;;15.90;99.90;;;;;;4994376;28;20431;-70
2022/05/21 05:10:15;;;;;;;14.68;10.25;;;15.90;99.90;;;;;;4995201;28;20034;-70
2022/05/21 05:12:42;;;;;;;18.98;10.10;;;15.90;99.90;;;;;;4995386;28;20034;-70
2022/05/21 05:15:09;;;;;;;13.98;9.35;;;15.90;99.90;;;;;;4993637;28;20049;-71
2022/05/21 05:17:36;;;;;;;10.15;7.57;;;15.90;99.90;;;;;;4994009;28;20491;-71
2022/05/21 05:20:03;;;;;;;10.75;7.07;;;15.90;99.90;;;;;;4995023;28;20042;-70
2022/05/21 05:22:30;;;;;;;11.90;7.55;;;15.90;99.90;;;;;;4995209;28;20050;-70
2022/05/21 05:25:04;;;;;;;9.98;7.03;;;15.90;99.90;;;;;;4995450;28;20076;-70
2022/05/21 05:27:31;;;;;;;10.38;7.05;;;15.90;99.90;;;;;;4993886;28;20046;-71
2022/05/21 05:30:00;;;;;;;9.85;6.45;;;15.90;99.90;;;;;;4986835;28;20493;-71
2022/05/21 05:32:27;;;;;;;11.88;7.25;;;15.90;99.90;;;;;;4994990;28;20038;-70
2022/05/21 05:34:54;;;;;;;11.45;7.32;;;15.90;99.90;;;;;;4994001;28;20042;-71
2022/05/21 05:37:21;;;;;;;12.20;7.60;;;16.00;99.90;;;;;;5010492;28;20097;-71
2022/05/21 05:39:47;;;;;;;11.88;6.90;;;16.10;99.90;;;;;;4994938;28;20053;-70
2022/05/21 05:42:14;;;;;;;10.45;6.70;;;16.10;99.90;;;;;;4993496;28;20599;-70
2022/05/21 05:44:41;;;;;;;13.85;7.72;;;16.10;99.90;;;;;;4994696;28;20565;-71
2022/05/21 05:47:07;;;;;;;9.48;6.72;;;16.20;99.90;;;;;;4994802;28;20054;-70
2022/05/21 05:49:34;;;;;;;11.98;7.10;;;16.30;99.90;;;;;;4994173;28;20042;-70
2022/05/21 05:52:01;;;;;;;17.13;7.50;;;16.30;99.90;;;;;;4985955;28;20050;-70
2022/05/21 05:54:27;;;;;;;9.25;6.57;;;16.20;99.90;;;;;;4994872;28;20093;-70
2022/05/21 05:56:56;;;;;;;10.20;5.95;;;16.20;99.90;;;;;;4995303;28;20073;-70
2022/05/21 06:04:55;;;;;;;14.18;6.63;;;16.10;99.90;;;;;;4994491;28;20057;-69
2022/05/21 06:07:22;;;;;;;12.73;6.80;;;16.10;99.90;;;;;;4994376;28;20069;-68
2022/05/21 06:09:49;;;;;;;11.80;7.78;;;16.10;99.90;;;;;;4994615;28;20046;-69
2022/05/21 06:12:16;;;;;;;;;;;16.30;99.90;;;;;;4993633;28;20473;-69
2022/05/21 06:14:45;;;;;;;16.23;7.30;;;16.50;99.90;;;;;;4994456;28;19922;-69
2022/05/21 06:17:13;;;;;;;13.70;7.22;;;16.60;99.90;;;;;;4994230;28;20093;-69
2022/05/21 06:19:39;;;;;;;8.80;5.47;;;16.60;99.90;;;;;;4993040;28;20046;-68
2022/05/21 06:22:06;;;;;;;9.40;6.38;;;16.70;99.90;;;;;;4993925;28;20041;-69
2022/05/21 06:24:35;;;;;;;9.27;5.60;;;16.80;99.90;;;;;;4994231;28;20065;-69
2022/05/21 06:27:05;;;;;;;9.93;5.85;;;16.90;99.90;;;;;;4992763;28;20407;-69
2022/05/21 06:29:32;;;;;;;12.80;6.57;;;17.00;99.90;;;;;;4993910;28;20046;-69
2022/05/21 06:31:59;;;;;;;8.00;5.68;;;17.10;99.90;;;;;;4974475;28;20511;-69
2022/05/21 06:34:26;;;;;;;16.63;6.50;;;17.20;99.90;;;;;;4974550;28;20046;-69
2022/05/21 06:36:52;;;;;;;20.60;8.10;;;17.10;99.90;;;;;;4974612;28;20047;-69
2022/05/21 06:39:19;;;;;;;10.68;6.25;;;17.00;99.90;;;;;;4991977;28;20046;-69
2022/05/21 06:41:48;;;;;;;15.70;7.82;;;17.00;99.90;;;;;;4992212;28;20038;-69
2022/05/21 06:44:16;;;;;;;14.27;7.00;;;17.20;99.90;;;;;;4992681;28;20050;-69
2022/05/21 06:46:43;;;;;;;9.65;6.32;;;17.20;99.90;;;;;;4989016;28;20058;-70
2022/05/21 06:49:09;;;;;;;9.52;6.05;;;17.40;99.90;;;;;;4993584;28;20446;-69
2022/05/21 06:51:36;;;;;;;17.60;5.72;;;17.50;99.90;;;;;;4993318;28;20050;-70
2022/05/21 06:54:03;;;;;;;14.43;5.65;;;17.70;99.90;;;;;;4993775;28;20042;-70
2022/05/21 06:56:30;;;;;;;11.20;5.63;;;17.80;99.90;;;;;;4991585;28;20045;-70
2022/05/21 06:58:56;;;;;;;11.05;5.60;;;17.70;99.90;;;;;;4993472;28;20458;-70
2022/05/21 07:01:23;;;;;;;11.45;5.60;;;17.60;99.90;;;;;;4992072;28;20052;-70
2022/05/21 07:03:50;;;;;;;11.45;6.15;;;17.50;99.90;;;;;;4992263;28;20061;-70
2022/05/21 07:09:03;;;;;;;10.43;6.32;;;17.70;99.90;;;;;;4993344;28;20066;-70
2022/05/21 07:11:30;;;;;;;9.15;5.80;;;17.60;99.90;;;;;;4991465;28;20050;-70
2022/05/21 07:13:57;;;;;;;8.77;6.00;;;17.60;99.90;;;;;;4992991;28;20034;-70
2022/05/21 07:16:24;;;;;;;11.40;5.70;;;17.70;99.90;;;;;;4991651;28;20046;-70
2022/05/21 07:18:50;;;;;;;12.30;6.30;;;17.80;99.90;;;;;;4991825;28;20053;-70
2022/05/21 07:21:18;;;;;;;10.85;7.25;;;17.80;99.90;;;;;;4991123;28;20050;-70
2022/05/21 07:23:46;;;;;;;10.98;6.00;;;18.00;99.90;;;;;;4992863;28;20057;-70
2022/05/21 07:26:14;;;;;;;11.65;6.00;;;18.00;99.90;;;;;;4992921;28;20096;-70
2022/05/21 07:28:44;;;;;;;13.15;6.07;;;18.00;99.90;;;;;;4992750;28;20101;-70
2022/05/21 07:31:10;;;;;;;11.63;6.10;;;18.20;99.90;;;;;;4991044;28;20057;-70
2022/05/21 07:33:39;;;;;;;7.05;4.60;;;18.40;99.90;;;;;;4991426;28;20053;-70
2022/05/21 07:36:06;;;;;;;6.78;4.68;;;18.50;99.90;;;;;;4992695;28;20487;-70
2022/05/21 07:38:33;;;;;;;6.72;4.38;;;18.70;99.90;;;;;;4991562;28;20484;-70
2022/05/21 07:41:00;;;;;;;8.63;4.00;;;19.10;99.90;;;;;;4991786;28;20290;-70
2022/05/21 07:43:30;;;;;;;9.73;4.47;;;19.10;99.90;;;;;;4992453;28;20066;-70
2022/05/21 07:45:58;;;;;;;6.20;4.20;;;19.00;99.90;;;;;;4992610;28;20105;-70
2022/05/21 07:48:25;;;;;;;8.25;4.10;;;18.80;99.90;;;;;;4989940;28;20042;-70
2022/05/21 07:51:02;;;;;;;;;;;18.70;99.90;;;;;;4992245;28;20049;-70
2022/05/21 07:53:32;;;;;;;5.15;3.40;;;18.80;99.90;;;;;;4992491;28;19931;-70
2022/05/21 07:55:59;;;;;;;10.63;3.97;;;18.90;99.90;;;;;;4992441;28;20121;-70
2022/05/21 07:58:29;;;;;;;3.80;2.92;;;18.90;99.90;;;;;;4990940;28;20445;-68
2022/05/21 08:00:55;;;;;;;5.85;3.60;;;18.90;99.90;;;;;;4991852;28;20050;-74
2022/05/21 08:03:25;;;;;;;4.85;3.28;;;19.00;99.90;;;;;;4992595;28;20049;-70
2022/05/21 08:05:53;;;;;;;;;;;19.00;99.90;;;;;;4992556;28;20870;-71
2022/05/21 08:08:20;;;;;;;7.18;3.70;;;19.00;99.90;;;;;;4991160;28;19922;-71
2022/05/21 08:10:47;;;;;;;4.28;3.25;;;19.00;99.90;;;;;;4990640;28;20541;-70
2022/05/21 08:13:16;;;;;;;5.53;3.92;;;19.20;99.90;;;;;;4991828;28;20043;-71
2022/05/21 08:15:44;;;;;;;5.93;3.75;;;19.20;99.90;;;;;;4992196;28;20034;-71
2022/05/21 08:18:11;;;;;;;7.28;3.83;;;19.20;99.90;;;;;;4990982;28;20565;-72
2022/05/21 08:20:39;;;;;;;7.13;3.42;;;19.30;99.90;;;;;;4991748;28;20050;-71
2022/05/21 08:28:42;;;;;;;5.13;2.97;;;19.10;99.90;;;;;;4991232;28;20039;-71
2022/05/21 08:31:09;;;;;;;6.55;3.85;;;19.30;99.90;;;;;;4991331;28;20035;-71
2022/05/21 08:33:36;;;;;;;8.32;3.70;;;19.50;99.90;;;;;;4991842;28;20104;-72
2022/05/21 08:36:03;;;;;;;8.20;3.75;;;19.60;99.90;;;;;;4990634;28;20046;-71
2022/05/21 08:38:30;;;;;;;7.90;3.40;;;19.50;99.90;;;;;;4991511;28;20092;-71
2022/05/21 08:41:11;;;;;;;6.40;3.42;;;19.70;99.90;;;;;;4991468;28;20046;-71
2022/05/21 08:44:00;;;;;;;6.88;3.05;;;19.90;99.90;;;;;;4991350;28;20042;-71
2022/05/21 08:47:01;;;;;;;6.15;3.08;;;20.20;99.90;;;;;;4989734;28;20050;-72
2022/05/21 08:49:41;;;;;;;6.55;3.53;;;20.60;99.90;;;;;;5023430;23;20073;-63
2022/05/21 08:53:05;;;;;;;9.52;2.78;;;21.00;99.90;;;;;;5025740;28;20055;-63
2022/05/21 08:55:37;;;;;;;9.00;3.25;;;20.90;99.90;;;;;;5031259;28;20060;-63
2022/05/21 08:58:16;;;;;;;6.53;2.75;;;21.10;99.90;;;;;;5015539;28;20045;-63
2022/05/21 09:00:45;;;;;;;4.60;3.45;;;21.10;99.90;;;;;;5030575;28;20448;-63
2022/05/21 09:03:15;;;;;;;4.10;3.28;;;20.90;99.90;;;;;;5031173;28;20255;-63
2022/05/21 09:05:47;;;;;;;5.47;3.35;;;20.90;99.90;;;;;;5031171;28;20060;-63
2022/05/21 09:08:17;;;;;;;6.43;3.50;;;20.80;99.90;;;;;;5031299;28;20508;-63
2022/05/21 09:11:11;;;;;;;6.78;3.28;;;20.90;99.90;;;;;;5031682;28;20517;-63
2022/05/21 09:14:02;;;;;;;4.88;3.42;;;21.10;99.90;;;;;;5032253;28;20490;-63
2022/05/21 09:16:57;;;;;;;6.63;4.25;;;21.10;99.90;;;;;;5041076;28;20099;-63
2022/05/21 09:19:34;;;;;;;7.20;3.35;;;20.90;99.90;;;;;;5040139;28;20057;-63
2022/05/21 09:22:07;;;;;;;8.15;3.40;;;20.80;99.90;;;;;;5034467;28;20037;-63
2022/05/21 09:24:58;;;;;;;4.95;3.40;;;20.80;99.90;;;;;;5038691;28;20084;-63
2022/05/21 09:27:36;;;;;;;7.95;3.50;;;20.90;99.90;;;;;;5044552;28;20030;-63
2022/05/21 09:30:30;;;;;;;3.67;2.90;;;21.10;99.90;;;;;;5038711;28;20037;-63
2022/05/21 09:33:22;;;;;;;5.45;3.05;;;21.10;99.90;;;;;;5034142;28;20034;-63
2022/05/21 09:35:53;;;;;;;6.43;3.53;;;21.20;99.90;;;;;;5027540;28;20057;-63
2022/05/21 09:38:26;;;;;;;4.60;2.85;;;21.30;99.90;;;;;;5029191;28;20056;-63
2022/05/21 09:41:12;;;;;;;4.95;3.20;;;21.50;99.90;;;;;;5034207;28;20643;-64
2022/05/21 09:46:44;;;;;;;6.45;3.17;;;22.00;99.90;;;;;;5028059;28;20053;-62
2022/05/21 09:49:21;;;;;;;5.22;2.50;;;22.00;99.90;;;;;;5034049;28;20049;-63
2022/05/21 09:51:59;;;;;;;4.93;2.70;;;22.10;99.90;;;;;;5034020;28;20042;-63
2022/05/21 09:54:32;;;;;;;3.50;3.05;;;22.20;99.90;;;;;;5025939;28;20049;-63
2022/05/21 09:56:59;;;;;;;5.90;3.00;;;22.10;99.90;;;;;;5026380;28;20076;-63
2022/05/21 09:59:30;;;;;;;6.32;3.15;;;22.20;99.90;;;;;;5042771;28;20076;-63
2022/05/21 10:02:13;;;;;;;6.25;2.92;;;22.10;99.90;;;;;;5046854;28;20430;-63
2022/05/21 10:04:53;;;;;;;15.35;3.83;;;22.30;99.90;;;;;;5033843;28;20050;-63
2022/05/21 10:13:14;;;;;;;10.20;3.10;;;21.90;99.90;;;;;;5032539;28;20041;-62
2022/05/21 10:15:46;;;;;;;5.55;3.33;;;21.60;99.90;;;;;;5033860;28;20426;-63
2022/05/21 10:18:34;;;;;;;5.90;3.00;;;21.70;99.90;;;;;;5033815;28;20490;-63
2022/05/21 10:21:25;;;;;;;10.02;3.13;;;22.00;99.90;;;;;;5028973;28;20045;-63
2022/05/21 10:24:00;;;;;;;4.90;2.72;;;22.20;99.90;;;;;;5032118;28;20056;-63
2022/05/21 10:26:58;;;;;;;5.07;2.42;;;22.30;99.90;;;;;;5033797;28;20494;-63
2022/05/21 10:30:02;;;;;;;8.77;3.38;;;22.80;99.90;;;;;;5029437;28;20048;-63
2022/05/21 10:32:47;;;;;;;6.22;3.10;;;22.70;99.90;;;;;;5031127;28;20057;-63
2022/05/21 10:35:40;;;;;;;4.80;2.80;;;22.70;99.90;;;;;;5033581;28;20037;-63
2022/05/21 10:38:12;;;;;;;10.63;3.63;;;22.70;99.90;;;;;;5026352;28;20447;-63
2022/05/21 10:41:02;;;;;;;5.78;2.72;;;22.50;99.90;;;;;;5033048;28;20092;-63
2022/05/21 10:43:57;;;;;;;5.13;3.28;;;22.50;99.90;;;;;;5032225;28;20542;-63
2022/05/21 10:46:40;;;;;;;6.10;3.38;;;22.80;99.90;;;;;;5028576;28;20459;-63
2022/05/21 10:49:32;;;;;;;11.88;3.63;;;23.10;99.90;;;;;;5035802;28;20429;-63
2022/05/21 10:52:11;;;;;;;5.25;3.15;;;23.40;99.90;;;;;;5038574;28;20049;-63
2022/05/21 10:54:59;;;;;;;5.60;3.38;;;23.40;99.90;;;;;;5039839;28;20038;-63
2022/05/21 10:57:49;;;;;;;9.13;3.33;;;22.90;99.90;;;;;;5043172;28;20036;-63
2022/05/21 11:00:27;;;;;;;8.00;3.47;;;22.70;99.90;;;;;;5040377;28;20505;-63
2022/05/21 11:03:12;;;;;;;6.03;3.22;;;22.40;99.90;;;;;;5037856;28;20049;-63
2022/05/21 11:05:49;;;;;;;5.57;3.00;;;22.20;99.90;;;;;;5040750;28;20046;-63
2022/05/21 11:08:27;;;;;;;8.20;3.20;;;22.50;99.90;;;;;;5040228;28;20041;-63
2022/05/21 11:11:04;;;;;;;5.35;3.10;;;22.50;99.90;;;;;;5036292;28;20046;-63
2022/05/21 11:13:45;;;;;;;8.60;3.40;;;22.40;99.90;;;;;;5036151;28;20521;-63
2022/05/21 11:16:24;;;;;;;11.38;3.88;;;22.50;99.90;;;;;;5032848;28;20045;-63
2022/05/21 11:19:00;;;;;;;10.27;3.45;;;22.80;99.90;;;;;;5022525;28;20064;-63
2022/05/21 11:21:39;;;;;;;7.47;3.47;;;22.90;99.90;;;;;;5036708;28;20041;-63
2022/05/21 11:24:19;;;;;;;8.50;4.35;;;23.00;99.90;;;;;;5040951;28;20128;-63
2022/05/21 11:27:18;;;;;;;11.50;4.05;;;23.10;99.90;;;;;;5041207;28;20036;-63
2022/05/21 11:29:58;;;;;;;10.60;3.90;;;22.90;99.90;;;;;;5037197;28;20037;-63
2022/05/21 11:38:38;;;;;;;9.98;3.75;;;23.30;99.90;;;;;;5039545;28;20060;-64
2022/05/21 11:41:27;;;;;;;4.88;3.58;;;22.80;99.90;;;;;;5041610;28;20378;-64
2022/05/21 11:44:55;;;;;;;9.80;3.65;;;22.40;99.90;;;;;;5041737;28;20051;-64
2022/05/21 11:46:48;;;;;;;4.53;3.45;;;22.20;99.90;;;;;;5037882;28;20029;-64
2022/05/21 11:49:26;;;;;;;7.35;3.55;;;22.40;99.90;;;;;;5040364;28;20508;-64
2022/05/21 11:51:55;;;;;;;7.93;3.33;;;22.50;99.90;;;;;;5022775;28;20038;-64
2022/05/21 11:54:49;;;;;;;6.68;3.60;;;22.20;99.90;;;;;;5032001;28;20048;-64
2022/05/21 11:57:33;;;;;;;11.00;3.35;;;22.20;99.90;;;;;;5031367;28;20045;-64
2022/05/21 12:00:03;;;;;;;6.80;3.80;;;22.50;99.90;;;;;;5037679;28;20108;-64
2022/05/21 12:02:59;;;;;;;13.00;3.38;;;22.40;99.90;;;;;;5041824;28;20049;-64
2022/05/21 12:05:34;;;;;;;8.38;3.53;;;22.10;99.90;;;;;;5037388;28;20029;-64
2022/05/21 12:08:15;;;;;;;8.55;3.53;;;21.80;99.90;;;;;;5042770;28;20557;-64
2022/05/21 12:11:04;;;;;;;6.05;3.40;;;21.90;99.90;;;;;;5038467;28;20033;-64
2022/05/21 12:13:33;;;;;;;9.13;3.40;;;22.30;99.90;;;;;;5043425;28;20068;-64
2022/05/21 12:16:02;;;;;;;6.70;3.00;;;22.20;99.90;;;;;;5041506;28;20041;-64
2022/05/21 12:18:34;;;;;;;6.25;3.05;;;21.90;99.90;;;;;;5036840;28;20037;-64
2022/05/21 12:21:02;;;;;;;9.15;3.38;;;22.00;99.90;;;;;;5031054;28;20494;-64
2022/05/21 12:23:32;;;;;;;7.10;3.10;;;22.10;99.90;;;;;;5031601;28;20105;-62
2022/05/21 12:26:03;;;;;;;5.78;3.17;;;22.00;99.90;;;;;;5027910;28;20053;-64
2022/05/21 12:28:38;;;;;;;7.60;2.70;;;22.00;99.90;;;;;;5030115;28;20056;-64
2022/05/21 12:31:11;;;;;;;7.47;3.33;;;21.90;99.90;;;;;;5040295;28;20506;-64
2022/05/21 12:33:45;;;;;;;7.47;3.05;;;22.10;99.90;;;;;;5030001;28;20071;-64
2022/05/21 12:36:39;;;;;;;6.63;3.17;;;22.30;99.90;;;;;;5038850;28;20503;-65
2022/05/21 12:39:15;;;;;;;7.00;4.07;;;22.20;99.90;;;;;;5033123;28;20114;-64
2022/05/21 12:41:46;;;;;;;7.45;3.15;;;22.10;99.90;;;;;;5036273;28;20045;-64
2022/05/21 12:44:38;;;;;;;7.70;2.95;;;22.00;99.90;;;;;;5041261;28;20087;-64
2022/05/21 12:47:06;;;;;;;10.13;3.67;;;21.90;99.90;;;;;;5041086;28;20068;-63
2022/05/21 12:49:34;;;;;;;11.00;3.20;;;22.00;99.90;;;;;;5041352;28;20453;-64
2022/05/21 12:52:02;;;;;;;10.48;3.70;;;22.00;99.90;;;;;;5037299;28;20112;-64
2022/05/21 12:54:29;;;;;;;6.15;3.00;;;21.90;99.90;;;;;;5044166;28;20037;-64
2022/05/21 12:57:09;;;;;;;8.27;2.92;;;21.80;99.90;;;;;;5045053;28;20529;-64
2022/05/21 12:59:36;;;;;;;7.40;3.00;;;21.90;99.90;;;;;;5012838;28;20053;-64
2022/05/21 13:02:16;;;;;;;8.73;3.80;;;22.20;99.90;;;;;;5027286;28;20042;-64
2022/05/21 13:04:46;;;;;;;7.57;3.13;;;22.20;99.90;;;;;;5043490;28;20040;-64
2022/05/21 13:07:16;;;;;;;6.13;3.25;;;22.30;99.90;;;;;;5045657;28;20493;-63
2022/05/21 13:10:00;;;;;;;5.15;2.95;;;22.30;99.90;;;;;;5042380;28;20044;-63
2022/05/21 13:12:39;;;;;;;6.97;3.58;;;22.70;99.90;;;;;;5035047;28;20037;-64
2022/05/21 13:15:11;;;;;;;8.40;3.67;;;22.50;99.90;;;;;;5035407;28;20041;-63
2022/05/21 13:17:56;;;;;;;6.07;3.05;;;22.60;99.90;;;;;;5033949;28;20061;-63
2022/05/21 13:20:27;;;;;;;7.00;3.55;;;22.90;99.90;;;;;;5034352;28;20107;-63
2022/05/21 13:23:12;;;;;;;10.85;3.13;;;23.10;99.90;;;;;;5035012;28;20124;-64
2022/05/21 13:25:40;;;;;;;7.85;3.88;;;22.80;99.90;;;;;;5041316;28;20047;-63
2022/05/21 13:28:17;;;;;;;5.28;3.35;;;22.70;99.90;;;;;;5045354;28;20509;-63
2022/05/21 13:30:47;;;;;;;4.35;3.42;;;22.40;99.90;;;;;;5040582;28;20583;-63
2022/05/21 13:33:34;;;;;;;5.53;3.33;;;22.50;99.90;;;;;;5042067;28;20055;-62
2022/05/21 13:36:10;;;;;;;6.22;3.35;;;22.80;99.90;;;;;;5045075;28;20037;-63
2022/05/21 13:38:40;;;;;;;7.97;3.60;;;22.80;99.90;;;;;;5043109;28;20037;-63
2022/05/21 13:41:17;;;;;;;7.30;4.00;;;22.80;99.90;;;;;;5053052;28;20049;-63
2022/05/21 13:43:46;;;;;;;6.05;3.45;;;23.00;99.90;;;;;;5042543;28;20552;-63